createdAt,value
2022-10-18T00:02:15.616Z,10.41
2022-10-18T00:04:42.348Z,10.34
2022-10-18T00:07:08.838Z,10.28
2022-10-18T00:09:35.317Z,10.21
2022-10-18T00:12:02.077Z,10.20
2022-10-18T00:14:28.622Z,10.16
2022-10-18T00:16:55.135Z,10.12
2022-10-18T00:19:24.759Z,10.09
2022-10-18T00:21:53.671Z,10.03
2022-10-18T00:24:20.222Z,9.99
2022-10-18T00:26:46.741Z,9.95
2022-10-18T00:29:15.111Z,9.90
2022-10-18T00:31:43.617Z,9.89
2022-10-18T00:34:13.481Z,9.87
2022-10-18T00:36:40.345Z,9.82
2022-10-18T00:39:08.466Z,9.75
2022-10-18T00:41:38.078Z,9.71
2022-10-18T00:44:12.742Z,9.69
2022-10-18T00:46:42.053Z,9.66
2022-10-18T00:49:15.689Z,9.66
2022-10-18T00:51:46.626Z,9.63
2022-10-18T00:54:15.060Z,9.63
2022-10-18T00:56:41.921Z,9.62
2022-10-18T00:59:08.515Z,9.62
2022-10-18T01:01:35.059Z,9.63
2022-10-18T01:04:01.557Z,9.61
2022-10-18T01:06:29.405Z,9.57
2022-10-18T01:09:26.898Z,9.56
2022-10-18T01:12:35.297Z,9.56
2022-10-18T01:15:15.741Z,9.53
2022-10-18T01:18:19.169Z,9.46
2022-10-18T01:21:24.155Z,9.46
2022-10-18T01:24:24.497Z,9.44
2022-10-18T01:27:29.460Z,9.43
2022-10-18T01:30:20.639Z,9.41
2022-10-18T01:32:58.963Z,9.35
2022-10-18T01:35:31.901Z,9.31
2022-10-18T01:38:03.970Z,9.31
2022-10-18T01:40:32.025Z,9.28
2022-10-18T01:42:59.304Z,9.26
2022-10-18T01:45:26.089Z,9.22
2022-10-18T01:47:54.309Z,9.20
2022-10-18T01:50:32.115Z,9.17
2022-10-18T01:52:59.255Z,9.18
2022-10-18T01:55:42.090Z,9.13
2022-10-18T01:58:19.770Z,9.12
2022-10-18T02:00:50.711Z,9.10
2022-10-18T02:03:25.629Z,9.07
2022-10-18T02:05:59.785Z,9.02
2022-10-18T02:08:42.238Z,8.98
2022-10-18T02:11:12.427Z,8.94
2022-10-18T02:13:45.021Z,8.95
2022-10-18T02:16:16.668Z,8.94
2022-10-18T02:18:55.972Z,8.94
2022-10-18T02:21:23.263Z,8.91
2022-10-18T02:23:50.408Z,8.91
2022-10-18T02:26:17.221Z,8.89
2022-10-18T02:28:44.136Z,8.86
2022-10-18T02:31:16.372Z,8.83
2022-10-18T02:34:04.828Z,8.82
2022-10-18T02:36:59.058Z,8.82
2022-10-18T02:39:30.262Z,8.78
2022-10-18T02:41:57.935Z,8.80
2022-10-18T02:44:24.539Z,8.79
2022-10-18T02:46:51.504Z,8.76
2022-10-18T02:49:17.993Z,8.75
2022-10-18T02:51:44.468Z,8.72
2022-10-18T02:54:11.127Z,8.74
2022-10-18T02:56:37.586Z,8.73
2022-10-18T02:59:05.639Z,8.71
2022-10-18T03:01:33.262Z,8.72
2022-10-18T03:04:00.002Z,8.70
2022-10-18T03:06:26.445Z,8.69
2022-10-18T03:08:52.988Z,8.71
2022-10-18T03:11:19.721Z,8.69
2022-10-18T03:13:46.210Z,8.69
2022-10-18T03:16:13.718Z,8.68
2022-10-18T03:18:40.172Z,8.66
2022-10-18T03:21:07.936Z,8.66
2022-10-18T03:23:34.783Z,8.64
2022-10-18T03:26:01.670Z,8.60
2022-10-18T03:28:28.424Z,8.58
2022-10-18T03:31:03.997Z,8.58
2022-10-18T03:33:31.968Z,8.57
2022-10-18T03:35:58.502Z,8.57
2022-10-18T03:38:25.059Z,8.57
2022-10-18T03:40:51.527Z,8.54
2022-10-18T03:43:18.101Z,8.52
2022-10-18T03:45:44.581Z,8.50
2022-10-18T03:48:11.069Z,8.46
2022-10-18T03:50:37.516Z,8.45
2022-10-18T03:53:04.246Z,8.42
2022-10-18T03:55:30.731Z,8.39
2022-10-18T03:57:58.182Z,8.35
2022-10-18T04:00:24.770Z,8.32
2022-10-18T04:02:54.925Z,8.30
2022-10-18T04:05:28.235Z,8.28
2022-10-18T04:07:54.968Z,8.24
2022-10-18T04:10:21.802Z,8.20
2022-10-18T04:12:48.343Z,8.20
2022-10-18T04:15:15.403Z,8.17
2022-10-18T04:17:42.043Z,8.14
2022-10-18T04:20:08.949Z,8.10
2022-10-18T04:22:35.446Z,8.07
2022-10-18T04:25:01.943Z,8.05
2022-10-18T04:27:28.475Z,8.01
2022-10-18T04:29:54.994Z,8.01
2022-10-18T04:32:21.474Z,7.98
2022-10-18T04:34:47.947Z,7.96
2022-10-18T04:37:14.416Z,7.92
2022-10-18T04:39:40.861Z,7.89
2022-10-18T04:42:07.352Z,7.86
2022-10-18T04:44:34.473Z,7.84
2022-10-18T04:47:00.946Z,7.82
2022-10-18T04:49:27.433Z,7.83
2022-10-18T04:51:53.894Z,7.80
2022-10-18T04:54:21.849Z,7.78
2022-10-18T04:56:50.417Z,7.75
2022-10-18T04:59:16.923Z,7.72
2022-10-18T05:01:43.480Z,7.70
2022-10-18T05:04:10.064Z,7.68
2022-10-18T05:06:36.631Z,7.66
2022-10-18T05:09:03.652Z,7.66
2022-10-18T05:11:30.229Z,7.58
2022-10-18T05:13:56.817Z,7.60
2022-10-18T05:16:23.476Z,7.56
2022-10-18T05:18:50.201Z,7.56
2022-10-18T05:21:16.873Z,7.53
2022-10-18T05:23:43.358Z,7.52
2022-10-18T05:26:09.853Z,7.50
2022-10-18T05:28:40.477Z,7.52
2022-10-18T05:31:09.274Z,7.50
2022-10-18T05:33:36.019Z,7.49
2022-10-18T05:36:02.600Z,7.49
2022-10-18T05:38:31.067Z,7.47
2022-10-18T05:40:58.550Z,7.44
2022-10-18T05:43:28.824Z,7.46
2022-10-18T05:45:55.741Z,7.47
2022-10-18T05:48:22.410Z,7.46
2022-10-18T05:50:48.911Z,7.44
2022-10-18T05:53:35.185Z,7.46
2022-10-18T05:56:02.936Z,7.46
2022-10-18T05:58:29.569Z,7.48
2022-10-18T06:00:59.915Z,7.50
2022-10-18T06:03:27.843Z,7.50
2022-10-18T06:06:00.273Z,7.52
2022-10-18T06:08:26.896Z,7.55
2022-10-18T06:10:53.491Z,7.55
2022-10-18T06:13:20.041Z,7.57
2022-10-18T06:15:46.630Z,7.56
2022-10-18T06:18:13.172Z,7.54
2022-10-18T06:20:39.681Z,7.54
2022-10-18T06:23:06.650Z,7.54
2022-10-18T06:25:33.176Z,7.53
2022-10-18T06:27:59.643Z,7.52
2022-10-18T06:30:26.130Z,7.47
2022-10-18T06:32:52.833Z,7.49
2022-10-18T06:35:19.278Z,7.47
2022-10-18T06:37:45.736Z,7.43
2022-10-18T06:40:12.426Z,7.41
2022-10-18T06:42:39.164Z,7.36
2022-10-18T06:45:06.416Z,7.34
2022-10-18T06:47:32.915Z,7.32
2022-10-18T06:49:59.893Z,7.29
2022-10-18T06:52:26.489Z,7.24
2022-10-18T06:54:53.880Z,7.21
2022-10-18T06:57:21.323Z,7.23
2022-10-18T06:59:47.760Z,7.21
2022-10-18T07:02:16.163Z,7.14
2022-10-18T07:04:43.543Z,7.10
2022-10-18T07:07:10.041Z,7.12
2022-10-18T07:09:36.609Z,7.11
2022-10-18T07:12:03.338Z,7.08
2022-10-18T07:14:29.861Z,7.04
2022-10-18T07:16:59.422Z,7.02
2022-10-18T07:19:25.955Z,7.02
2022-10-18T07:21:52.460Z,7.02
2022-10-18T07:24:18.994Z,6.99
2022-10-18T07:26:45.530Z,6.98
2022-10-18T07:29:13.133Z,6.95
2022-10-18T07:31:40.904Z,6.95
2022-10-18T07:34:10.547Z,6.99
2022-10-18T07:36:37.178Z,7.00
2022-10-18T07:39:04.155Z,7.02
2022-10-18T07:41:33.338Z,7.00
2022-10-18T07:44:01.047Z,7.01
2022-10-18T07:46:27.854Z,7.03
2022-10-18T07:48:54.928Z,7.12
2022-10-18T07:51:21.845Z,7.22
2022-10-18T07:53:48.533Z,7.29
2022-10-18T07:56:19.179Z,7.36
2022-10-18T07:58:47.450Z,7.47
2022-10-18T08:01:15.384Z,7.57
2022-10-18T08:03:42.520Z,7.67
2022-10-18T08:06:11.047Z,7.76
2022-10-18T08:08:39.462Z,7.85
2022-10-18T08:11:09.344Z,7.94
2022-10-18T08:13:36.348Z,8.05
2022-10-18T08:16:05.403Z,8.17
2022-10-18T08:18:32.332Z,8.29
2022-10-18T08:21:03.416Z,8.39
2022-10-18T08:23:30.440Z,8.50
2022-10-18T08:25:57.282Z,8.62
2022-10-18T08:28:23.942Z,8.76
2022-10-18T08:30:50.656Z,8.91
2022-10-18T08:33:17.122Z,9.08
2022-10-18T08:35:43.669Z,9.23
2022-10-18T08:38:16.459Z,9.41
2022-10-18T08:40:44.904Z,9.60
2022-10-18T08:43:29.106Z,9.81
2022-10-18T08:45:56.038Z,10.00
2022-10-18T08:48:45.877Z,10.23
2022-10-18T08:51:22.394Z,10.42
2022-10-18T08:53:56.308Z,10.61
2022-10-18T08:56:24.904Z,10.81
2022-10-18T08:58:51.452Z,11.05
2022-10-18T09:01:20.621Z,11.26
2022-10-18T09:04:51.121Z,11.52
2022-10-18T09:07:41.202Z,11.82
2022-10-18T09:10:07.763Z,12.04
2022-10-18T09:12:54.266Z,12.29
2022-10-18T09:15:38.983Z,12.52
2022-10-18T09:18:45.529Z,12.78
2022-10-18T09:21:19.202Z,13.03
2022-10-18T09:23:54.119Z,13.24
2022-10-18T09:26:22.557Z,13.45
2022-10-18T09:28:51.351Z,13.65
2022-10-18T09:32:16.831Z,13.88
2022-10-18T09:34:53.178Z,14.09
2022-10-18T09:37:22.554Z,14.26
2022-10-18T09:39:51.326Z,14.43
2022-10-18T09:42:28.700Z,14.59
2022-10-18T09:45:39.861Z,14.80
2022-10-18T09:48:31.374Z,14.99
2022-10-18T09:51:23.605Z,15.19
2022-10-18T09:54:13.150Z,15.35
2022-10-18T09:56:44.716Z,15.53
2022-10-18T09:59:39.087Z,15.70
2022-10-18T10:02:06.919Z,15.87
2022-10-18T10:04:33.532Z,16.03
2022-10-18T10:07:01.898Z,16.16
2022-10-18T10:09:50.217Z,16.33
2022-10-18T10:12:30.067Z,16.51
2022-10-18T10:15:08.552Z,16.68
2022-10-18T10:17:35.407Z,16.85
2022-10-18T10:20:30.740Z,17.05
2022-10-18T10:23:07.295Z,17.25
2022-10-18T10:25:38.257Z,17.43
2022-10-18T10:28:13.284Z,17.64
2022-10-18T10:30:40.138Z,17.82
2022-10-18T10:33:15.630Z,18.01
2022-10-18T10:35:53.654Z,18.18
2022-10-18T10:38:26.003Z,18.37
2022-10-18T10:40:52.778Z,18.51
2022-10-18T10:43:42.033Z,18.66
2022-10-18T10:46:19.072Z,18.80
2022-10-18T10:48:48.719Z,18.93
2022-10-18T10:51:27.233Z,19.04
2022-10-18T10:54:36.161Z,19.20
2022-10-18T10:57:12.587Z,19.32
2022-10-18T10:59:45.485Z,19.45
2022-10-18T11:02:21.429Z,19.57
2022-10-18T11:04:50.437Z,19.67
2022-10-18T11:07:16.880Z,19.79
2022-10-18T11:10:04.019Z,19.87
2022-10-18T11:12:38.542Z,19.97
2022-10-18T11:15:25.415Z,20.08
2022-10-18T11:18:10.514Z,20.19
2022-10-18T11:20:41.810Z,20.25
2022-10-18T11:23:12.337Z,20.33
2022-10-18T11:25:58.611Z,20.41
2022-10-18T11:28:37.057Z,20.46
2022-10-18T11:31:23.450Z,20.54
2022-10-18T11:34:21.580Z,20.63
2022-10-18T11:37:29.067Z,20.72
2022-10-18T11:40:05.977Z,20.85
2022-10-18T11:42:43.927Z,20.95
2022-10-18T11:45:40.993Z,21.08
2022-10-18T11:48:39.914Z,21.20
2022-10-18T11:51:33.951Z,21.37
2022-10-18T11:57:37.375Z,21.77
2022-10-18T12:00:14.143Z,21.94
2022-10-18T12:03:16.046Z,22.11
2022-10-18T12:05:45.869Z,22.29
2022-10-18T12:08:29.255Z,22.44
2022-10-18T12:11:06.023Z,22.57
2022-10-18T12:14:03.098Z,22.74
2022-10-18T12:16:50.484Z,22.88
2022-10-18T12:19:27.222Z,23.03
2022-10-18T12:21:57.579Z,23.14
2022-10-18T12:24:28.732Z,23.25
2022-10-18T12:27:00.032Z,23.37
2022-10-18T12:29:44.281Z,23.49
2022-10-18T12:32:24.669Z,23.64
2022-10-18T12:35:06.693Z,23.77
2022-10-18T12:37:51.130Z,23.92
2022-10-18T12:40:24.488Z,24.02
2022-10-18T12:42:53.285Z,24.13
2022-10-18T12:45:23.638Z,24.23
2022-10-18T12:47:50.345Z,24.28
2022-10-18T12:50:36.686Z,24.34
2022-10-18T12:53:07.649Z,24.43
2022-10-18T12:55:39.492Z,24.52
2022-10-18T12:58:25.118Z,24.64
2022-10-18T13:00:53.739Z,24.73
2022-10-18T13:03:26.125Z,24.82
2022-10-18T13:05:54.325Z,24.88
2022-10-18T13:08:38.376Z,24.92
2022-10-18T13:11:10.700Z,24.95
2022-10-18T13:13:58.485Z,24.91
2022-10-18T13:16:38.308Z,24.91
2022-10-18T13:19:51.361Z,24.87
2022-10-18T13:22:38.545Z,24.92
2022-10-18T13:25:27.885Z,24.96
2022-10-18T13:28:18.646Z,25.00
2022-10-18T13:31:09.782Z,25.02
2022-10-18T13:33:41.807Z,25.02
2022-10-18T13:36:22.985Z,24.94
2022-10-18T13:38:57.647Z,24.79
2022-10-18T13:41:34.339Z,24.63
2022-10-18T13:44:02.042Z,24.44
2022-10-18T13:46:34.505Z,24.39
2022-10-18T13:49:20.146Z,24.30
2022-10-18T13:52:14.803Z,24.24
2022-10-18T13:54:51.058Z,24.22
2022-10-18T13:57:48.340Z,24.19
2022-10-18T14:00:52.143Z,24.11
2022-10-18T14:06:33.575Z,23.98
2022-10-18T14:09:25.423Z,23.91
2022-10-18T14:12:08.583Z,23.81
2022-10-18T14:14:43.440Z,23.71
2022-10-18T14:17:49.269Z,23.63
2022-10-18T14:20:18.846Z,23.54
2022-10-18T14:23:03.372Z,23.45
2022-10-18T14:25:32.970Z,23.36
2022-10-18T14:28:21.728Z,23.25
2022-10-18T14:31:02.926Z,23.12
2022-10-18T14:33:42.957Z,23.01
2022-10-18T14:36:15.612Z,22.96
2022-10-18T14:38:58.789Z,22.85
2022-10-18T14:41:28.153Z,22.77
2022-10-18T14:44:14.812Z,22.71
2022-10-18T14:46:49.817Z,22.66
2022-10-18T14:49:17.201Z,22.56
2022-10-18T14:51:46.574Z,22.47
2022-10-18T14:54:32.709Z,22.38
2022-10-18T14:57:00.680Z,22.27
2022-10-18T14:59:30.571Z,22.18
2022-10-18T15:02:00.034Z,22.06
2022-10-18T15:04:32.915Z,21.96
2022-10-18T15:07:03.075Z,21.87
2022-10-18T15:09:31.765Z,21.75
2022-10-18T15:12:00.618Z,21.65
2022-10-18T15:14:28.851Z,21.56
2022-10-18T15:17:04.523Z,21.48
2022-10-18T15:19:36.735Z,21.39
2022-10-18T15:22:31.308Z,21.28
2022-10-18T15:25:08.669Z,21.17
2022-10-18T15:27:38.175Z,21.04
2022-10-18T15:30:25.714Z,19.93
2022-10-18T15:32:55.001Z,20.32
2022-10-18T15:35:33.096Z,20.46
2022-10-18T15:38:12.800Z,20.41
2022-10-18T15:40:40.524Z,20.36
2022-10-18T15:43:26.951Z,20.20
2022-10-18T15:46:06.803Z,20.12
2022-10-18T15:48:40.831Z,20.07
2022-10-18T15:51:19.273Z,19.93
2022-10-18T15:53:55.054Z,19.84
2022-10-18T15:56:31.678Z,19.76
2022-10-18T15:59:00.835Z,19.67
2022-10-18T16:01:42.836Z,19.56
2022-10-18T16:04:33.006Z,19.43
2022-10-18T16:07:00.512Z,19.32
2022-10-18T16:09:28.964Z,19.24
2022-10-18T16:11:57.225Z,19.18
2022-10-18T16:14:25.288Z,19.09
2022-10-18T16:16:55.044Z,18.94
2022-10-18T16:19:22.858Z,18.87
2022-10-18T16:21:51.144Z,18.77
2022-10-18T16:24:18.554Z,18.69
2022-10-18T16:26:45.191Z,18.59
2022-10-18T16:29:21.871Z,18.48
2022-10-18T16:31:49.753Z,18.37
2022-10-18T16:34:16.223Z,18.28
2022-10-18T16:36:42.858Z,18.14
2022-10-18T16:39:15.948Z,18.05
2022-10-18T16:41:42.789Z,17.95
2022-10-18T16:44:09.477Z,17.86
2022-10-18T16:46:36.680Z,17.75
2022-10-18T16:49:04.053Z,17.63
2022-10-18T16:51:31.195Z,17.54
2022-10-18T16:53:57.814Z,17.45
2022-10-18T16:56:30.641Z,17.32
2022-10-18T16:58:58.172Z,17.25
2022-10-18T17:01:25.255Z,17.15
2022-10-18T17:03:52.510Z,17.07
2022-10-18T17:06:22.594Z,16.92
2022-10-18T17:08:50.165Z,16.85
2022-10-18T17:11:17.699Z,16.74
2022-10-18T17:13:44.738Z,16.60
2022-10-18T17:19:02.921Z,16.30
2022-10-18T17:21:30.762Z,16.24
2022-10-18T17:24:00.508Z,16.07
2022-10-18T17:26:29.613Z,15.96
2022-10-18T17:29:00.073Z,15.84
2022-10-18T17:31:27.420Z,15.75
2022-10-18T17:33:55.375Z,15.70
2022-10-18T17:36:22.436Z,15.61
2022-10-18T17:38:53.438Z,15.53
2022-10-18T17:41:19.987Z,15.46
2022-10-18T17:43:48.129Z,15.36
2022-10-18T17:46:16.112Z,15.28
2022-10-18T17:48:42.995Z,15.21
2022-10-18T17:51:17.456Z,15.14
2022-10-18T17:53:44.349Z,15.16
2022-10-18T17:56:12.073Z,15.14
2022-10-18T17:58:39.339Z,15.02
2022-10-18T18:01:24.064Z,14.91
2022-10-18T18:03:55.762Z,14.86
2022-10-18T18:06:31.352Z,14.73
2022-10-18T18:09:00.156Z,14.75
2022-10-18T18:11:27.097Z,14.72
2022-10-18T18:13:55.838Z,14.67
2022-10-18T18:16:25.226Z,14.53
2022-10-18T18:18:53.768Z,14.56
2022-10-18T18:21:21.190Z,14.51
2022-10-18T18:23:49.141Z,14.43
2022-10-18T18:26:16.138Z,14.40
2022-10-18T18:28:43.056Z,14.37
2022-10-18T18:31:12.228Z,14.29
2022-10-18T18:33:38.765Z,14.24
2022-10-18T18:36:06.735Z,14.22
2022-10-18T18:38:35.419Z,14.18
2022-10-18T18:41:23.145Z,14.16
2022-10-18T18:43:58.507Z,14.09
2022-10-18T18:46:27.101Z,14.01
2022-10-18T18:48:54.050Z,13.99
2022-10-18T18:51:21.832Z,13.96
2022-10-18T18:53:48.648Z,13.92
2022-10-18T18:58:52.774Z,13.85
2022-10-18T19:01:22.428Z,13.81
2022-10-18T19:03:51.455Z,13.73
2022-10-18T19:06:23.858Z,13.69
2022-10-18T19:08:54.100Z,13.65
2022-10-18T19:11:22.544Z,13.56
2022-10-18T19:13:50.279Z,13.56
2022-10-18T19:16:20.078Z,13.53
2022-10-18T19:18:54.043Z,13.48
2022-10-18T19:21:21.486Z,13.44
2022-10-18T19:23:50.892Z,13.38
2022-10-18T19:26:28.666Z,13.32
2022-10-18T19:28:55.277Z,13.27
2022-10-18T19:31:22.792Z,13.24
2022-10-18T19:33:59.426Z,13.21
2022-10-18T19:36:26.749Z,13.18
2022-10-18T19:38:53.335Z,13.13
2022-10-18T19:41:19.830Z,13.08
2022-10-18T19:43:46.416Z,13.06
2022-10-18T19:46:13.066Z,13.03
2022-10-18T19:48:39.587Z,12.98
2022-10-18T19:51:09.345Z,12.93
2022-10-18T19:53:36.564Z,12.87
2022-10-18T19:56:05.614Z,12.71
2022-10-18T19:58:32.803Z,12.76
2022-10-18T20:01:00.308Z,12.72
2022-10-18T20:03:30.341Z,12.69
2022-10-18T20:05:59.229Z,12.62
2022-10-18T20:08:27.517Z,12.58
2022-10-18T20:10:54.713Z,12.55
2022-10-18T20:13:22.130Z,12.51
2022-10-18T20:15:50.521Z,12.44
2022-10-18T20:18:18.897Z,12.40
2022-10-18T20:20:48.197Z,12.35
2022-10-18T20:23:16.431Z,12.31
2022-10-18T20:25:43.438Z,12.26
2022-10-18T20:28:09.923Z,12.21
2022-10-18T20:30:36.609Z,12.16
2022-10-18T20:33:04.897Z,12.12
2022-10-18T20:35:32.191Z,12.10
2022-10-18T20:37:58.759Z,12.04
2022-10-18T20:40:25.334Z,12.00
2022-10-18T20:42:52.564Z,11.97
2022-10-18T20:45:19.225Z,11.91
2022-10-18T20:47:45.742Z,11.88
2022-10-18T20:50:12.302Z,11.84
2022-10-18T20:52:38.922Z,11.79
2022-10-18T20:55:05.862Z,11.69
2022-10-18T20:57:35.676Z,11.70
2022-10-18T21:00:03.919Z,11.64
2022-10-18T21:02:30.493Z,11.62
2022-10-18T21:04:56.938Z,11.58
2022-10-18T21:07:23.604Z,11.53
2022-10-18T21:09:50.196Z,11.49
2022-10-18T21:12:16.653Z,11.45
2022-10-18T21:14:43.217Z,11.39
2022-10-18T21:17:09.779Z,11.35
2022-10-18T21:19:36.304Z,11.32
2022-10-18T21:22:02.820Z,11.27
2022-10-18T21:24:30.294Z,11.21
2022-10-18T21:26:56.893Z,11.15
2022-10-18T21:29:27.012Z,11.12
2022-10-18T21:31:55.618Z,11.08
2022-10-18T21:34:22.283Z,11.03
2022-10-18T21:36:48.955Z,10.96
2022-10-18T21:39:18.462Z,10.95
2022-10-18T21:41:45.578Z,10.91
2022-10-18T21:44:12.372Z,10.84
2022-10-18T21:46:40.125Z,10.81
2022-10-18T21:49:07.781Z,10.74
2022-10-18T21:51:34.728Z,10.71
2022-10-18T21:54:01.546Z,10.71
2022-10-18T21:56:30.266Z,10.67
2022-10-18T21:58:57.985Z,10.66
2022-10-18T22:01:28.066Z,10.57
2022-10-18T22:03:56.457Z,10.62
2022-10-18T22:06:24.020Z,10.57
2022-10-18T22:08:58.503Z,10.38
2022-10-18T22:11:28.002Z,10.42
2022-10-18T22:13:54.955Z,10.27
2022-10-18T22:16:22.412Z,10.24
2022-10-18T22:18:49.685Z,10.24
2022-10-18T22:21:17.946Z,10.18
2022-10-18T22:23:47.487Z,10.11
2022-10-18T22:26:19.675Z,10.03
2022-10-18T22:28:47.448Z,10.04
2022-10-18T22:31:19.715Z,9.99
2022-10-18T22:33:47.061Z,10.00
2022-10-18T22:36:13.746Z,9.94
2022-10-18T22:38:40.396Z,9.93
2022-10-18T22:41:09.533Z,9.92
2022-10-18T22:43:36.814Z,9.89
2022-10-18T22:46:05.716Z,9.88
2022-10-18T22:48:33.207Z,9.82
2022-10-18T22:51:00.227Z,9.84
2022-10-18T22:53:27.684Z,9.78
2022-10-18T22:55:54.284Z,9.74
2022-10-18T22:58:20.989Z,9.73
2022-10-18T23:00:47.970Z,9.71
2022-10-18T23:03:16.602Z,9.65
2022-10-18T23:05:45.227Z,9.66
2022-10-18T23:08:14.124Z,9.66
2022-10-18T23:10:42.346Z,9.65
2022-10-18T23:13:10.613Z,9.63
2022-10-18T23:15:39.123Z,9.63
2022-10-18T23:18:06.180Z,9.62
2022-10-18T23:20:32.701Z,9.58
2022-10-18T23:22:59.189Z,9.58
2022-10-18T23:25:27.119Z,9.55
2022-10-18T23:27:53.817Z,9.57
2022-10-18T23:30:20.391Z,9.54
2022-10-18T23:32:46.876Z,9.57
2022-10-18T23:35:13.456Z,9.60
2022-10-18T23:37:39.969Z,9.60
2022-10-18T23:40:07.198Z,9.62
2022-10-18T23:42:33.769Z,9.66
2022-10-18T23:45:00.391Z,9.65
2022-10-18T23:47:26.914Z,9.66
2022-10-18T23:49:55.557Z,9.68
2022-10-18T23:52:22.150Z,9.70
2022-10-18T23:54:48.631Z,9.72
2022-10-18T23:57:15.082Z,9.72
2022-10-18T23:59:41.567Z,9.75
